Point O Woods, New York
Current Conditions -  °F | °C
As of 7:53 AM on Thursday 23 Oct 2014 (Local Time) from KFRG Reporting Station
Light Rain Light Rain  
Wind Chill: 52°   Ceiling: 2200
Heat Index: 52°   Visibility: 9mi
Dew Point: 48°   Wind: 17mph
Humidity: 86%   Direction: 360°N
Pressure: 29.66"   Gusts: NA
Location:  40.7379°N, 73.2632°W
Report Text: KFRG 231153Z 36015KT 9SM -RA FEW017 BKN022 OVC028 11/09 A2966 RMK AO2 RAB1055E1056B15 SLP045 P0001 60007 70084 T01110089 10117 20106 55001
Loading
Personal Weather Stations






























Interactive Weather Map
Tropical Storm Tracking
New forecast layout! Learn more

10-Day Weather Forecast

Advertisements
Track Severe Weather on mobile